x

8447387 - Borden Flats Light At Fall River, Ma (bltm3) Weather Station

4:54 - Thu 3rd Sep 2015 All times are EDT. -4 hours from GMT.

  • Wind
    8mph, 9mph gusts
  • Ar Temp 81°f
  • Sea Pressure 1009.8mb
  • 8447387 - Borden Flats Light At Fall River, Ma
  • 8447387 - Borden Flats Light At Fall River, Ma

More Historic Weather Station data

Upgrade to MSW Pro to gain access to the past 30 days of data for over 8000 Wavebouys and Weather Stations around the globe.

Join Pro

Comparision Forecast

View Surf forecast
   
Qui 09/03 4:54 8 9 mph 1009.8mb 81f
4:48 10 11 mph 1009.8mb 81f
4:42 11 13 mph 1009.7mb 81f
4:36 13
mph
1009.6mb 81f
4:30 10
mph
1009.5mb 81f
4:24 10 11 mph 1009.4mb 81f
4:18 8 11 mph 1009.5mb 81f
4:12 10 11 mph 1009.5mb 80f
4:06 11 14 mph 1009.4mb 80f
4:00 11 13 mph 1009.4mb 80f
3:54 11 13 mph 1009.4mb 80f
3:48 9 10 mph 1009.3mb 81f
3:42 5 7 mph 1009.4mb 83f
3:36 3 6 mph 1009.3mb 83f
3:30 7 8 mph 1009.3mb 81f
3:24 3 6 mph 1009.4mb 82f
3:18 5 7 mph 1009.4mb 81f
3:12 8 10 mph 1009.4mb 81f
3:06 6 8 mph 1009.4mb 81f
3:00 6 8 mph 1009.4mb 81f
2:54 5 8 mph 1009.5mb 82f
2:48 8 9 mph 1009.4mb 81f
2:42 8
mph
1009.5mb 81f
2:36 8
mph
1009.5mb 82f
2:30 8
mph
1009.5mb 82f
2:24 5 6 mph 1009.6mb 83f
2:18 2 5 mph 1009.7mb 83f
2:12 5 6 mph 1009.7mb 82f
2:06 6 7 mph 1009.8mb 82f
2:00 2 6 mph 1009.7mb 84f
1:54 2 5 mph 1009.7mb 83f
1:48 5
mph
1009.8mb 83f
1:42 5 6 mph 1009.9mb 83f
1:36 3 5 mph 1009.9mb 82f
1:30 5 6 mph 1010mb 82f
1:24 6
mph
1010mb 82f
1:18 5
mph
1010mb 82f
1:12 6
mph
1010mb 81f
1:06 6 7 mph 1010.1mb 80f
1:00 5 6 mph 1010.1mb 80f
12:54 6
mph
1010.1mb 80f
12:48  -  mph 1010.1mb 80f
12:42  -  mph 1010.2mb 79f
12:36  -  mph 1010.2mb 79f
12:30 7
mph
1010.2mb 79f
12:24 7
mph
1010.3mb 79f
12:18 7
mph
1010.4mb 79f
12:12 6
mph
1010.4mb 79f
12:06 6
mph
1010.4mb 79f
12:00 6
mph
- 79f
11:54 6
mph
- 79f
11:48 5 6 mph 1010.5mb 78f
11:42 5 6 mph 1010.4mb 78f
11:36 3 5 mph 1010.5mb 78f
11:30 5
mph
1010.7mb -
11:24 3 5 mph 1010.7mb -
11:18 3 5 mph 1010.8mb 77f
11:12 5 6 mph 1010.8mb 77f
11:06 5
mph
1010.9mb 77f
11:00 5
mph
1010.9mb -
10:54 3 5 mph 1010.9mb -
10:48 3 5 mph 1010.8mb 76f
10:42 3 5 mph 1010.9mb 76f
10:36 5
mph
1010.9mb 76f
10:30 3 5 mph 1010.9mb 76f
10:24 3 5 mph 1010.9mb 76f
10:18 3
mph
1010.9mb 75f
10:12 3 5 mph 1010.9mb 75f
10:06 3 5 mph 1011mb 75f
10:00 3 5 mph 1011mb 74f
9:54 2 3 mph 1011mb 74f
9:48 3 5 mph 1011mb 74f
9:42 5
mph
1010.9mb 74f
9:36 5 6 mph 1010.8mb 74f
9:30 6
mph
1010.8mb -
9:24 5 6 mph 1010.8mb -
9:18 3 5 mph 1010.8mb 73f
9:12 3 5 mph 1010.8mb 73f
9:06 3 5 mph 1010.8mb 73f
9:00 5 6 mph 1010.8mb 73f
8:54 5 6 mph 1010.9mb 73f
8:48 5 6 mph 1010.8mb 73f
8:42 5 6 mph 1010.8mb 73f
8:36 5 6 mph 1010.8mb 73f
8:30 6
mph
1010.8mb 73f
8:24 6 7 mph 1010.8mb 73f
8:18 6 7 mph 1010.9mb 73f
8:00 7 8 mph 1010.7mb 73f
7:54 7 8 mph 1010.7mb 73f
7:48 6 7 mph 1010.7mb 73f
7:42 7
mph
1010.7mb 72f
7:36 7 8 mph 1010.7mb 72f
7:30 7 8 mph 1010.7mb 73f
7:24 7 9 mph 1010.6mb 73f
7:18 7 8 mph 1010.5mb 73f
7:12 7 9 mph 1010.6mb 73f
7:06 6 7 mph 1010.5mb 73f
7:00 7 8 mph 1010.3mb 73f
6:54 7 8 mph 1010.3mb 73f
6:48 7 8 mph 1010.3mb 73f
6:42 7 9 mph 1010.3mb 73f
6:36 8 9 mph 1010.3mb 73f
6:30 7 9 mph 1010.3mb 73f
6:24 7 8 mph 1010.3mb 73f
6:18 7 8 mph 1010.2mb 73f
6:12 6 8 mph 1010.2mb 73f
6:06 7 8 mph 1010.1mb 73f
6:00 6 8 mph 1010.2mb 73f
5:54 6 9 mph 1010.2mb 73f
5:48 8 9 mph 1010.1mb 73f
5:42 7 10 mph 1010.2mb 73f
5:36 8 10 mph 1010.1mb 73f
5:30 8 10 mph 1010.1mb 73f
5:24 9 10 mph 1010.1mb 73f
5:18 9 10 mph 1010.1mb 73f
5:12 9 10 mph 1010.1mb 73f
5:06 9 10 mph 1010.2mb 73f
5:00 9 10 mph 1010.1mb 73f
4:54 8 10 mph 1010.1mb 73f
4:48 9 10 mph 1010mb 73f
4:42 8 10 mph 1010.1mb 73f
4:36 9 11 mph 1010.2mb 73f
4:30 8 10 mph 1010.2mb 73f
4:24 9 11 mph 1010.1mb 73f
4:18 9 10 mph 1010.2mb 73f
4:12 8 9 mph 1010.2mb 73f
4:06 8 9 mph 1010.2mb 73f
4:00 8 9 mph 1010.3mb 73f
3:54 7 9 mph 1010.4mb 73f
3:48 7 9 mph 1010.4mb 73f
3:42 8 9 mph 1010.4mb 73f
3:36 7 8 mph 1010.4mb 73f
3:30 8 9 mph 1010.5mb 73f
3:24 8 9 mph 1010.5mb 73f
3:18 8 9 mph 1010.5mb 73f
3:12 8 9 mph 1010.6mb 73f
3:06 8 9 mph 1010.5mb 73f
3:00 8 10 mph 1010.6mb 73f
2:54 9 10 mph 1010.6mb 73f
2:48  -  mph - 73f
2:42  -  mph - 73f
2:36  -  mph - 73f
2:30 9 11 mph 1010.5mb 74f
2:24 10 13 mph 1010.5mb 74f
2:18 11 13 mph 1010.5mb 74f
2:12 10 11 mph 1010.6mb 74f
2:06 10 11 mph 1010.7mb 74f
2:00 11 13 mph 1010.7mb 74f
1:54 11 14 mph 1010.7mb 74f
1:48 11 13 mph 1010.8mb 74f
1:42 13 14 mph 1010.8mb 74f
1:36 13 14 mph 1010.8mb 74f
1:30 13 14 mph 1010.9mb 74f
1:24 13 14 mph 1010.9mb 74f
1:18 14 15 mph 1011mb 74f
1:12 14 15 mph 1010.9mb 74f
1:06 13 14 mph 1010.9mb 74f
1:00 13 14 mph 1010.9mb 74f
12:54 13 14 mph 1010.9mb 74f
12:48 14 15 mph 1010.9mb 74f
12:42 11 13 mph 1011mb 74f
12:36 11 14 mph 1010.9mb 74f
12:30 11 13 mph 1011mb 74f
12:24 11 13 mph 1011.1mb 74f
12:18 11 13 mph 1011.2mb 74f
12:12 11 13 mph 1011.3mb 74f
12:06 10 13 mph 1011.4mb 74f
12:00 11 14 mph 1011.4mb 74f
Qua 09/02 11:54 10 13 mph 1011.4mb 75f
11:48 11 13 mph 1011.4mb 75f
11:42 11 13 mph 1011.5mb 75f
11:36 11 13 mph 1011.5mb 75f
11:30 11 13 mph 1011.5mb 75f
11:24 10 13 mph 1011.5mb 75f
11:18 10 11 mph 1011.6mb 75f
11:12 11 14 mph 1011.6mb 75f
11:06 11 13 mph 1011.7mb 75f
11:00 11 14 mph 1011.7mb 75f
10:54 13 14 mph 1011.7mb 75f
10:48 11 14 mph 1011.7mb 75f
10:42 11 14 mph 1011.7mb 75f
10:36 11 15 mph 1011.8mb 75f
10:30 11 14 mph 1011.8mb 75f
10:24 11 14 mph 1011.9mb 75f
10:18 14 15 mph 1011.8mb 75f
10:12 13 15 mph 1011.9mb 75f
10:06 13 15 mph 1011.9mb 75f
10:00 13 15 mph 1011.9mb 75f
9:54 13 16 mph 1011.9mb 75f
9:48 14 15 mph 1011.9mb 76f
9:42 13 14 mph 1012mb 76f
9:36 13 14 mph 1012mb 75f
9:30 13 15 mph 1012.1mb 76f
9:24 11 14 mph 1012.1mb 75f
9:18 10 13 mph 1012.1mb 76f
9:12 10 14 mph 1012.1mb 75f
9:06 9 11 mph 1012.1mb 75f
9:00 10 14 mph 1012mb -
8:54 10 13 mph 1012mb -
8:48 10 15 mph 1012mb 75f
8:42 10 13 mph 1012mb 76f
8:36 10 13 mph 1012mb 76f
8:30 13 15 mph 1012mb 76f
8:24 13 15 mph 1012.1mb 76f
8:18 11 14 mph 1012.1mb 76f
8:12 13 17 mph 1012mb 76f
8:06 13 16 mph 1012mb 76f
8:00 14 16 mph 1012mb 76f
7:54 13 15 mph 1011.9mb 76f
7:48 13 15 mph 1011.8mb 76f
7:42 11 15 mph 1011.8mb 76f
7:36 13 15 mph 1011.8mb 76f
7:30 14 17 mph 1011.8mb 76f
7:24 11 16 mph 1011.7mb 77f
7:18 10 13 mph 1011.8mb 77f
7:12 13 16 mph 1011.8mb 77f
7:06 11 15 mph 1011.7mb 77f
7:00 10 13 mph 1011.7mb 78f
6:54 13 15 mph 1011.6mb 78f
6:48 11 15 mph 1011.6mb 78f
6:42 10 14 mph 1011.6mb 78f
6:36 9 14 mph 1011.7mb 78f
6:30 11 15 mph 1011.7mb 78f
6:24 11 14 mph 1011.7mb 78f
6:18 13 17 mph 1011.7mb 79f
6:12 13 16 mph 1011.7mb 79f
6:06 13 15 mph 1011.8mb 79f
6:00 14 17 mph 1011.7mb 79f
5:54 15 20 mph 1011.7mb 79f
5:48 16 20 mph 1011.6mb 79f
5:42 14 18 mph 1011.7mb 79f
5:36 15 20 mph 1011.7mb 80f
5:30 15 21 mph 1011.7mb 80f
5:24 16 21 mph 1011.8mb 80f
5:18  -  mph - 80f
5:12  -  mph - 80f
5:06 16 20 mph 1011.8mb 80f
5:00 15 20 mph 1011.9mb 80f
4:54 15 21 mph 1011.9mb 80f
4:48 15 20 mph 1012mb 80f
4:42 17 21 mph 1012mb 80f
4:36 14 20 mph 1012mb 81f
4:30 13 17 mph 1012.1mb 81f
4:24 14 18 mph 1012.1mb 81f
4:18 16 20 mph 1012.2mb 81f
4:12 14 17 mph 1012.3mb 81f
4:06 14 18 mph 1012.3mb 81f
4:00 15 18 mph 1012.3mb 80f
3:54 14 18 mph 1012.4mb 81f
3:48 14 17 mph 1012.5mb 81f
3:42 15 18 mph 1012.5mb 81f
3:36 16 20 mph 1012.6mb 81f
3:30 15 18 mph 1012.7mb 81f
3:24 15 18 mph 1012.8mb 81f
3:18 16 20 mph 1012.9mb 81f
3:12 15 20 mph 1012.9mb 81f
3:06 15 18 mph 1012.9mb 81f
3:00 14 17 mph 1013.1mb 81f
2:54 11 14 mph 1013.1mb 81f
2:48 10 15 mph 1013.1mb 81f
2:42 14 17 mph 1013.1mb 81f
2:36 13 17 mph 1013.1mb 81f
2:30 13 15 mph 1013.3mb 81f
2:24 13 16 mph 1013.3mb 81f
2:18 14 17 mph 1013.4mb 81f
2:12 13 15 mph 1013.5mb 81f
2:06 11 14 mph 1013.5mb 81f
2:00 13 15 mph 1013.6mb 81f
1:54 11 14 mph 1013.7mb 81f
1:48 14 17 mph 1013.7mb 80f
1:42 9 15 mph 1013.8mb 81f
1:36 9 13 mph 1013.8mb 81f
1:30 10 15 mph 1013.8mb 81f
1:24 13 15 mph 1013.9mb 80f
1:18 9 11 mph 1014mb 81f
1:12 13 14 mph 1014mb 81f
1:06 10 14 mph 1014mb 81f
1:00 11 14 mph 1014.2mb 80f
12:54 11 14 mph 1014.2mb 80f
12:48 11 13 mph 1014.3mb 80f
12:42 11 14 mph 1014.4mb 80f
12:36 13 14 mph 1014.5mb 79f
12:30 13 16 mph 1014.6mb 79f
12:24 11 15 mph 1014.6mb 78f
12:18 11 14 mph 1014.7mb 78f
12:12 10 13 mph 1014.8mb 78f
12:06 11 13 mph 1014.9mb 78f
12:00 11 13 mph 1014.9mb 78f
11:54 10 13 mph 1015mb 77f
11:48 11 14 mph 1015mb 77f
11:42 11 13 mph 1015.1mb 77f
11:36 10 11 mph 1015.1mb 76f
11:30 10 13 mph 1015.2mb 76f
11:24 10 11 mph 1015.2mb 76f
11:18 10 13 mph 1015.3mb 76f
11:12 10 13 mph 1015.5mb 76f
11:06 11 13 mph 1015.5mb 76f
11:00 10 13 mph 1015.6mb 75f
10:54 11 13 mph 1015.6mb 75f
10:48 11 13 mph 1015.6mb 75f
10:42 10 11 mph 1015.7mb 75f
10:36 10 11 mph 1015.7mb 74f
10:30 10 11 mph 1015.8mb 74f
10:24 10 11 mph 1015.8mb 74f
10:18 9 11 mph 1015.8mb -
10:12 10 11 mph 1015.8mb -
10:06 10 11 mph 1015.8mb -
10:00 10 11 mph 1015.8mb 73f
9:54 10 13 mph 1015.8mb 72f
9:48 10 13 mph 1015.9mb 72f
9:42 10 13 mph 1015.8mb 72f
9:36 9 11 mph 1015.9mb 71f
9:30 10 13 mph 1015.9mb 71f
9:24 13 14 mph 1015.9mb 71f
9:18 13 14 mph 1015.9mb 71f
9:12 13 14 mph 1015.9mb 71f
9:06 14 15 mph 1015.9mb 71f
9:00 13 15 mph 1016mb 71f
8:54 13 15 mph 1016mb 71f
8:48 13 14 mph 1016mb 71f
8:42 14 15 mph 1016mb 71f
8:36 13 15 mph 1016.1mb 71f
8:30 14 15 mph 1016.1mb 71f
8:24 13 15 mph 1016.1mb 71f
8:18 14 15 mph 1016.1mb 71f
8:12 13 15 mph 1016.1mb 70f
8:06 13 15 mph 1016.1mb 70f
8:00 14 15 mph 1016.1mb 70f
7:54 14 16 mph 1016.1mb 70f
7:48 14 16 mph 1016.1mb 70f
7:42 14 16 mph 1016.2mb 70f
7:36 13 14 mph 1016.2mb 70f
7:30 13 14 mph 1016.2mb 71f
7:24 13 15 mph 1016.2mb 71f
7:18 13 14 mph 1016.1mb 71f
7:12 13 15 mph 1016.2mb 71f
7:06 13 14 mph 1016.1mb 71f
7:00 11 14 mph 1016.2mb 71f
6:54 13 15 mph 1016.1mb 71f
6:48 13 14 mph 1016.1mb 71f
6:42 13 14 mph 1016mb 71f
6:36 11 14 mph 1015.9mb 71f
6:30 10 14 mph 1015.9mb 71f
6:24 9 11 mph 1016mb 71f
6:18 9 11 mph 1016mb 71f
6:12 9 11 mph 1015.9mb 71f
6:06 11 14 mph 1015.9mb 71f
6:00 10 14 mph 1016mb 72f
5:54 13 14 mph 1015.9mb 72f
5:48 11 14 mph 1015.9mb 71f
5:42 11 15 mph 1015.9mb 71f
5:36 10 13 mph 1015.9mb 71f
5:30 9 11 mph 1015.9mb 71f
5:24 9 13 mph 1015.9mb 71f
5:18 9 11 mph 1015.9mb 71f
5:12 9 11 mph 1015.9mb 71f
5:06 9 11 mph 1015.9mb 71f
5:00 9 10 mph 1016mb 71f
4:54 8 9 mph 1016mb 71f
4:48 8 10 mph 1015.9mb 71f
4:42 8 10 mph 1016mb 71f
4:36 8 10 mph 1016mb 71f
4:30 8 10 mph 1016.1mb 71f
4:24 8 9 mph 1016.1mb 71f
4:18 8 10 mph 1016.1mb 71f
4:12 7 9 mph 1016.1mb 71f
4:06 7 8 mph 1016.2mb 71f
4:00 8 9 mph 1016.2mb 71f
3:54 9 11 mph 1016.2mb 71f
3:48 10 11 mph 1016.3mb 71f
3:42 11 13 mph 1016.3mb 72f
3:36 11 14 mph 1016.3mb 72f
3:30 13 14 mph 1016.4mb 72f
3:24 13 15 mph 1016.4mb 72f
3:18 13 14 mph 1016.4mb 72f
3:12 13 14 mph 1016.4mb 72f
3:06 13 15 mph 1016.5mb 72f
3:00 9 14 mph 1016.6mb 72f
2:54 9 11 mph 1016.6mb 72f
2:48 10 13 mph 1016.6mb 72f
2:42 9 14 mph 1016.6mb 72f
2:36 9 10 mph 1016.7mb 72f
2:30 10 13 mph 1016.7mb 72f
2:24 8 10 mph 1016.7mb 72f
2:18 11 15 mph 1016.7mb -
2:12 8 10 mph 1016.8mb -
2:06 9 10 mph 1016.8mb -
2:00 7 9 mph 1017mb 72f
1:54 7 8 mph 1017mb 71f
1:48 7 8 mph 1017.1mb 71f
1:42 7 8 mph 1017.1mb 71f
1:36 7 9 mph 1017.1mb 71f
1:30 8 9 mph 1017.1mb 71f
1:24 8 10 mph 1017.2mb 71f
1:18 7 8 mph 1017.2mb 71f
1:12 6 7 mph 1017.2mb 71f
1:06 5 6 mph 1017.3mb 71f
1:00 5 6 mph 1017.3mb 71f
12:54 6 7 mph 1017.3mb 71f
12:48 5 7 mph 1017.4mb 71f
12:42 5 6 mph 1017.4mb 71f
12:36 6 7 mph 1017.4mb 71f
12:30 5 6 mph 1017.4mb 71f
12:24 6
mph
1017.5mb 71f
12:18 6 7 mph 1017.4mb 71f
12:12 6 8 mph 1017.3mb 71f
12:06 6 7 mph 1017.3mb 71f
12:00 7 9 mph 1017.3mb 71f
Ter 09/01 11:54 7 9 mph 1017.3mb 71f
11:48 8 9 mph 1017.3mb 71f
11:42 7 9 mph 1017.3mb 71f
11:36 7 9 mph 1017.3mb 71f
11:30 6 8 mph 1017.3mb 71f
11:24 5 7 mph 1017.3mb 71f
11:18 6 7 mph 1017.4mb 71f
11:12 5 7 mph 1017.4mb 71f
11:06 6 8 mph 1017.4mb 71f
11:00 6 7 mph 1017.4mb 71f
10:54 6 8 mph 1017.5mb 71f
10:48 6 7 mph 1017.5mb 71f
10:42 6 7 mph 1017.5mb 71f
10:36 6 7 mph 1017.6mb 71f
10:30 6 8 mph 1017.5mb 71f
10:24 8 10 mph 1017.5mb 71f
10:18 7 8 mph 1017.5mb 71f
10:12 6 8 mph 1017.5mb 71f
10:06 7 9 mph 1017.5mb 71f
10:00 7 9 mph 1017.5mb 71f
9:54 7 8 mph 1017.6mb 71f
9:48 6 7 mph 1017.6mb 71f
9:42 6 8 mph 1017.6mb 72f
9:36 6 7 mph 1017.5mb 72f
9:30 7 9 mph 1017.5mb 72f
9:24 7 9 mph 1017.5mb 72f
9:18 6 8 mph 1017.5mb 72f
9:12 6 8 mph 1017.6mb 72f
9:06 6 7 mph 1017.5mb 72f
9:00 6 8 mph 1017.4mb 72f
8:54 6 8 mph 1017.4mb 72f
8:48 5 8 mph 1017.3mb 72f
8:42 7 10 mph 1017.3mb 72f
8:36 5 8 mph 1017.2mb 72f
8:30 5 7 mph 1017.2mb 72f
8:24 6 7 mph 1017mb 72f
8:18 3 5 mph 1016.9mb 72f
8:12 6 10 mph 1016.8mb 73f
8:06 5 8 mph 1016.8mb 73f
8:00 8 11 mph 1016.7mb 73f
7:54 6 8 mph 1016.7mb 73f
7:48 7 9 mph 1016.7mb 74f
7:42 5 7 mph 1016.7mb 74f
7:36 7 8 mph 1016.7mb 74f
7:30 6 8 mph 1016.6mb 74f
7:24 7 8 mph 1016.6mb 75f
7:18 6 8 mph 1016.5mb 75f
7:12 7 8 mph 1016.5mb 75f
7:06 5 6 mph 1016.6mb 75f
7:00 6 7 mph 1016.5mb 75f
6:54 8 9 mph 1016.5mb 75f
6:48 7 9 mph 1016.4mb 76f
6:42 7 10 mph 1016.4mb 76f
6:36 9 10 mph 1016.4mb 76f
6:30 9 11 mph 1016.4mb 76f
6:24 8 10 mph 1016.4mb 76f
6:18 8 11 mph 1016.3mb 77f
6:12 9 11 mph 1016.3mb 77f
6:06 10 11 mph 1016.2mb 76f
6:00 10 11 mph 1016.2mb 77f
5:54 11 13 mph 1016.2mb 77f
5:48 14 16 mph 1016.2mb 76f
5:42 15 16 mph 1016.2mb 76f
5:36 15 16 mph 1016.2mb 76f
5:30 16 17 mph 1016.2mb 76f
5:24 15 17 mph 1016.1mb 77f
5:18 15 17 mph 1016.1mb 77f
5:12 14 21 mph 1016.2mb 78f
5:06 9 15 mph 1016.3mb 79f
5:00 10 14 mph 1016.3mb 79f
4:54 10 14 mph 1016.2mb 79f
4:48 9 13 mph 1016.2mb 80f
4:42 10 13 mph 1016.2mb 79f
4:36 11 15 mph 1016.2mb 80f
4:30 11 14 mph 1016.2mb 80f
4:24 10 15 mph 1016.2mb 80f
4:18 10 14 mph 1016.1mb 79f
4:12 11 15 mph 1016.1mb 80f
4:06 9 14 mph 1016.1mb 80f
4:00 14 16 mph 1015.9mb 78f
3:54 13 15 mph 1016mb 79f
3:48 13 14 mph 1016mb 79f
3:42 13 14 mph 1016mb 79f
3:36 13 14 mph 1016.1mb 79f
3:30 11 13 mph 1016.1mb 79f
3:24 13 14 mph 1016.1mb 79f
3:18 13 14 mph 1016.2mb 79f
3:12 11 13 mph 1016.2mb 79f
3:06 10
mph
1016.3mb 80f
3:00 9 10 mph 1016.3mb 79f
2:54 10 11 mph 1016.3mb 79f
2:48 8 9 mph 1016.4mb 80f
2:42 9
mph
1016.5mb 80f
2:36 8 9 mph 1016.5mb 80f
2:30 8
mph
1016.5mb 80f
2:24 8
mph
1016.5mb 79f
2:18 7 8 mph 1016.7mb 79f
2:12 6 7 mph 1016.7mb 80f
2:06 7 8 mph 1016.8mb 80f
2:00 7
mph
1016.7mb 80f
1:54 6 7 mph 1016.8mb 80f
1:48 5
mph
1016.8mb 80f
1:42 6
mph
1016.9mb 80f
1:36 3 5 mph 1016.9mb 80f
1:30 3 5 mph 1016.9mb 79f
1:24 6
mph
1016.9mb 79f
1:18 6
mph
1016.8mb 79f
1:12 6
mph
1016.9mb 79f
1:06 6
mph
1016.8mb 79f
1:00 5
mph
1016.9mb 79f
12:54 5 6 mph 1016.8mb 79f
12:48 2 3 mph 1016.9mb 81f
12:42  -  1 mph 1017mb 83f
12:36 1 2 mph 1016.9mb 86f
12:30 2
mph
1016.9mb 86f
12:24 1 3 mph 1016.9mb 85f
12:18 2 3 mph 1016.9mb -
12:12 3 6 mph 1016.9mb -
12:06 6
mph
1017mb -
12:00 5 6 mph 1017mb 82f
11:54 5 6 mph 1017.1mb 82f
11:48 7 13 mph - 81f
11:42 6 8 mph - 81f
11:36 6 8 mph - 81f
11:30 3 6 mph 1017.1mb 81f
11:24 8 9 mph 1017.1mb 81f
11:18 7 9 mph 1017.2mb 81f
11:12 8 10 mph 1017.2mb 82f
11:06 5 7 mph 1017.3mb 81f
11:00 8 10 mph 1017.3mb 81f
10:54 8 9 mph 1017.3mb 80f
10:48 7 9 mph 1017.3mb 80f
10:42 8 9 mph 1017.3mb 80f
10:36 9 11 mph 1017.3mb 79f
10:30 9 10 mph 1017.3mb 79f
10:24 8 10 mph 1017.3mb 79f
10:18 8 9 mph 1017.3mb 79f
10:12 9 10 mph 1017.2mb 78f
10:06 9 10 mph 1017.1mb 78f
10:00 10 11 mph 1017.1mb 78f
9:54 9 11 mph 1017mb 77f
9:48 10 11 mph 1017mb 77f
9:42 11 15 mph 1016.9mb 77f
9:36 10 14 mph 1016.9mb 76f
9:30 10 13 mph 1016.8mb 76f
9:24 10 14 mph 1016.8mb 76f
9:18 10 13 mph 1016.8mb 75f
9:12 10 13 mph 1016.7mb 75f
9:06 10 13 mph 1016.7mb 75f
9:00 10 13 mph 1016.6mb 75f
8:54 9 11 mph 1016.6mb 75f
8:48 10 14 mph 1016.6mb 75f
8:42 11 16 mph 1016.5mb 75f
8:36 10 15 mph 1016.5mb 75f
8:30 8 10 mph 1016.5mb 75f
8:24 9 13 mph 1016.5mb 74f
8:18 7 9 mph 1016.5mb 74f
8:12 9 11 mph 1016.5mb 73f
8:06 8 11 mph 1016.3mb 73f
8:00 7 11 mph 1016.5mb 73f
7:54 6 8 mph 1016.4mb 73f
7:48 5 6 mph 1016.4mb 72f
7:42 6 7 mph 1016.4mb 72f
7:36 3 6 mph 1016.3mb 72f
7:30 2 3 mph 1016.3mb 72f
7:24 2 3 mph 1016.2mb 72f
7:18 2 5 mph 1016.3mb 72f
7:12 2 3 mph 1016.2mb 72f
7:06 3 5 mph 1016.1mb 71f
7:00 3 6 mph 1016.1mb 71f
6:54 5 6 mph 1016.1mb 71f
6:48 2 3 mph 1016.1mb 71f
6:42 2 3 mph 1016mb 71f
6:36 1 2 mph 1016mb 71f
6:30 3
mph
- 71f
6:24 2 5 mph - 71f
6:18 5 6 mph 1015.8mb 71f
6:12 6 8 mph 1015.6mb 71f
6:06 2 6 mph 1015.6mb 71f
6:00 3 6 mph 1015.6mb 71f
5:54 3 6 mph 1015.5mb 72f
5:48  -  mph 1015.3mb 72f
5:42  -  mph 1015.2mb 71f
5:36  -  mph 1015.1mb 71f
5:30 3
mph
1015mb 71f
5:24 2 5 mph 1015mb 71f
5:18 2 3 mph 1014.8mb 71f
5:12 5 7 mph 1014.8mb 71f
5:06 5
mph
1014.8mb 71f
5:00 5 6 mph 1014.6mb 72f
4:54 5 6 mph 1014.8mb 72f
4:48 3 5 mph 1014.6mb 72f
4:42 3 6 mph 1014.6mb 72f
4:36 1 3 mph 1014.7mb 72f
4:30 2 5 mph 1014.6mb 72f
4:24 2 3 mph 1014.5mb 72f
4:18 3
mph
- 72f
4:12 3 5 mph - 72f
4:06 3 6 mph - 73f
4:00 2 3 mph 1014.6mb 73f
3:54 3
mph
1014.5mb 73f
3:48 3 5 mph 1014.5mb 73f
3:42 2 3 mph 1014.6mb 73f
3:36 2 5 mph 1014.5mb 74f
3:30 2 3 mph 1014.6mb 74f
3:24 3 6 mph 1014.7mb 74f
3:18 3 5 mph 1014.6mb 74f
3:12 1 2 mph 1014.6mb 74f
3:06 1 3 mph 1014.6mb 74f
3:00 3 5 mph 1014.5mb 75f
2:54 2 3 mph 1014.6mb 75f
2:48 2 3 mph 1014.6mb 75f
2:42 1 2 mph 1014.5mb 75f
2:36  -  1 mph 1014.5mb 74f
2:30 2 3 mph 1014.5mb 75f
2:24 2 5 mph 1014.5mb 75f
2:18 3 6 mph 1014.5mb 76f
2:12 5 6 mph 1014.5mb 76f
2:06 5 7 mph 1014.5mb 76f
2:00 2 5 mph 1014.4mb 76f
1:54 5 6 mph 1014.4mb 77f
1:48 5 6 mph 1014.4mb 77f
1:42 5 6 mph 1014.5mb 77f
1:36 6 7 mph 1014.5mb 77f
1:30 6
mph
1014.5mb 77f
1:24 6
mph
1014.4mb 77f
1:18 6 7 mph 1014.4mb 77f
1:12 6 7 mph 1014.4mb 78f
1:06 5 6 mph 1014.3mb 78f
1:00 6 7 mph 1014.3mb -
12:54 5 6 mph 1014.4mb -
12:48 6 8 mph 1014.2mb 78f
12:42 6 8 mph 1014.3mb 78f
12:36 5 7 mph 1014.2mb 78f
12:30 6 7 mph 1014.1mb 78f
12:24 5 6 mph 1014.1mb 78f
12:18 6 7 mph 1013.9mb 78f
12:12 7 8 mph 1013.9mb 78f
12:06 7 8 mph 1013.9mb 78f
12:00 7 8 mph - 78f
Seg 08/31 11:54 6 7 mph - 78f
11:48 6 7 mph 1013.8mb 78f
11:42 6 7 mph 1013.8mb 78f
11:36 6 7 mph 1013.8mb 78f
11:30 7 8 mph 1013.7mb 78f
11:24 7 8 mph 1013.7mb 79f
11:18 7 9 mph 1013.7mb 78f
11:12 6 7 mph 1013.6mb 78f
11:06 7 8 mph 1013.7mb 78f
11:00 7 8 mph 1013.6mb 77f
10:54 7 8 mph 1013.6mb 77f
10:48 7 8 mph 1013.6mb 78f
10:42 8 9 mph 1013.5mb 77f
10:36 8 9 mph 1013.5mb 77f
10:30 9 10 mph 1013.4mb 77f
10:24 8 9 mph 1013.4mb 77f
10:18 9 10 mph - 77f
10:12 9 10 mph - 77f
10:06 10 11 mph - 77f
10:00 10 11 mph 1013.3mb 77f
9:54 11 13 mph 1013.3mb 77f
9:48 13 14 mph 1013.3mb 77f
9:42 10 11 mph 1013.3mb 77f
9:36 9 10 mph 1013.3mb 78f
9:30 10 11 mph 1013.3mb 78f
9:24 10 11 mph 1013.3mb 78f
9:18 10 11 mph 1013.3mb -
9:12 10 11 mph 1013.3mb -
9:06 9 10 mph 1013.3mb -
9:00 10 11 mph 1013.2mb 78f
8:54 10 11 mph 1013.1mb 78f
8:48 11 13 mph 1013.1mb 78f
8:42 10 11 mph 1013mb 78f
8:36 13 14 mph 1013mb 78f
8:30 13 14 mph 1013mb 78f
8:24 13 14 mph 1012.9mb 79f
8:18 13 14 mph 1012.8mb 80f
8:12 11 13 mph 1012.7mb 80f
8:06 13
mph
1012.6mb 80f
8:00 11
mph
1012.6mb 80f
7:54 14
mph
1012.6mb 81f
7:48 14
mph
1012.6mb 81f
7:42 14
mph
1012.6mb 81f
7:36 14
mph
1012.5mb 81f
7:00 13 14 mph 1012.3mb 81f
6:54 14
mph
1012.3mb 82f
6:48 14 16 mph 1012.3mb 82f
6:42 14 16 mph 1012.3mb 82f
6:36 14 15 mph 1012.3mb 82f
6:30 14 15 mph 1012.3mb 82f
6:24 14 15 mph 1012.2mb 82f
6:18 15 16 mph 1012.2mb 82f
6:12 16 18 mph 1012.3mb 83f
6:06 17 21 mph 1012.2mb 82f
6:00 15 17 mph 1012.2mb 82f
5:54 14 15 mph 1012.2mb 83f
5:48 14 15 mph 1012.2mb 82f
5:42 13 15 mph 1012.2mb 82f
5:36 13 15 mph 1012.1mb 82f
5:30 14 16 mph 1012mb 83f
5:24 13 14 mph 1012mb 83f
5:18 14 15 mph 1012mb 83f
5:12 15 16 mph 1011.9mb 83f
5:06 14 16 mph 1011.9mb 83f
5:00 14 16 mph 1011.9mb 83f
4:54 14 16 mph 1011.9mb 83f
4:48 13 16 mph 1011.9mb 83f
4:42 17 18 mph 1011.8mb 83f
4:36 17 21 mph 1011.8mb 83f
4:30 17 20 mph 1011.8mb 83f
4:24 15 18 mph 1011.8mb 83f
4:18 14 17 mph 1011.8mb 83f
4:12 15 16 mph 1011.9mb 83f
4:06 15 16 mph 1011.9mb 83f
4:00 15 17 mph 1012mb 83f
3:54 16 20 mph 1012.1mb 83f
3:48 15 17 mph 1012.1mb 83f
3:42 16 20 mph 1012.1mb 83f
3:36 17 21 mph 1012.2mb 83f
3:30 20 21 mph 1012.3mb 83f
3:24 17 20 mph 1012.4mb 83f
3:18 16 20 mph 1012.4mb 83f
3:12 20 22 mph 1012.5mb 83f
3:06 16 18 mph 1012.5mb 83f
3:00 20 24 mph 1012.6mb 83f
2:54 20 25 mph 1012.7mb 83f
2:48 22 25 mph 1012.7mb 83f
2:42 16 21 mph 1012.8mb 83f
2:36 17 21 mph 1012.9mb 83f
2:30 17 20 mph 1012.9mb 83f
2:24 15 17 mph 1013mb 83f
2:18 15 17 mph 1013.1mb 82f
2:12 17 21 mph 1013.2mb 83f
2:06 16 20 mph 1013.3mb 82f
2:00 18 21 mph 1013.4mb 83f
1:54 16 21 mph 1013.4mb 83f
1:48 15 16 mph 1013.5mb 82f
1:42 14 16 mph 1013.6mb 82f
1:36 15 18 mph 1013.6mb 82f
1:30 13 16 mph 1013.7mb 82f
1:24 10 13 mph 1013.7mb 82f
1:18 10 11 mph 1013.8mb 82f
1:12 8 10 mph 1013.8mb 81f
1:06 9 11 mph 1013.9mb 81f
1:00 8 9 mph 1013.9mb 81f
12:54 9
mph
1013.9mb 81f
12:48 9 10 mph 1014mb 81f
12:42 10 11 mph 1014mb 81f
12:36 9 10 mph 1014.1mb 81f
12:30 8
mph
1014.1mb 80f
12:24 8
mph
1014.1mb 80f
12:18 8 9 mph 1014.2mb 80f
12:12 9 10 mph 1014.2mb 80f
12:06 9 10 mph 1014.3mb 80f
12:00 9 10 mph 1014.4mb 80f
11:54 9 10 mph 1014.5mb 80f
11:48 8 9 mph 1014.5mb 79f
10:54 8 9 mph 1014.9mb 78f
10:48 7 8 mph 1014.9mb 78f
9:54 7
mph
1015.1mb 76f
9:48 6 7 mph 1015.1mb 76f
8:54 8
mph
1015.2mb 75f
8:48 8 9 mph 1015.2mb 75f
7:54 10 11 mph 1015.1mb 74f
7:48 10 11 mph 1015mb 74f
6:54 7 9 mph 1015.1mb 74f
6:48 7 9 mph 1015mb 74f
5:54 9 10 mph 1014.8mb 74f
5:48 9 10 mph 1014.7mb 74f